Valley Grande, Alabama
Current Conditions -  °F | °C
As of 7:35 PM on Monday 22 Dec 2014 (Local Time) from KSEM Reporting Station
Overcast Overcast  
Wind Chill: 55°   Ceiling: 500
Heat Index: 55°   Visibility: 10mi
Dew Point: 54°   Wind: 9mph
Humidity: 94%   Direction: 100°E
Pressure: 29.8"   Gusts: NA
Location:  32.4554°N, 86.9821°W
Report Text: KSEM 230135Z AUTO 10008KT 10SM OVC005 13/12 A2980 RMK AO2
Loading
Personal Weather Stations






























Interactive Weather Map New forecast layout! Learn more

10-Day Weather Forecast

Advertisements
Track Severe Weather on mobile